Time;durP1;ratioP1;P1;durP2;ratioP2;P2;SDS_P1;SDS_P2;PMS_P1;PMS_P2;Temp;Humidity;BMP_temperature;BMP_pressure;BME280_temperature;BME280_humidity;BME280_pressure;Samples;Min_cycle;Max_cycle;Signal;HPM_P1;HPM_P2
2021/11/10 00:00:44;;;;;;;3.45;2.50;;;;;;;2.18;73.64;98352.19;5096747;28;20020;-64
2021/11/10 00:03:10;;;;;;;3.33;2.50;;;;;;;2.16;73.23;98344.38;5096755;28;20020;-64
2021/11/10 00:05:37;;;;;;;3.55;3.13;;;;;;;2.20;75.18;98350.53;5096707;28;20485;-61
2021/11/10 00:08:04;;;;;;;4.63;2.30;;;;;;;2.20;74.77;98350.53;5096628;28;20469;-62
2021/11/10 00:10:30;;;;;;;3.40;2.50;;;;;;;2.19;74.25;98357.38;5096631;28;20046;-66
2021/11/10 00:12:57;;;;;;;4.03;2.42;;;;;;;2.17;73.02;98351.31;5096551;28;20020;-65
2021/11/10 00:15:24;;;;;;;3.20;2.33;;;;;;;2.24;73.62;98357.50;5096489;28;20473;-63
2021/11/10 00:17:49;;;;;;;2.47;2.28;;;;;;;2.22;73.62;98360.03;5094961;28;20059;-64
2021/11/10 00:20:15;;;;;;;2.25;2.00;;;;;;;2.22;74.03;98361.75;5096439;28;20024;-63
2021/11/10 00:22:41;;;;;;;3.95;2.55;;;;;;;2.23;73.90;98358.34;5096434;28;20032;-64
2021/11/10 00:25:08;;;;;;;2.22;2.03;;;;;;;2.20;73.07;98360.84;5096339;28;20104;-65
2021/11/10 00:27:33;;;;;;;3.47;2.45;;;;;;;2.08;73.66;98353.66;5096239;28;20085;-62
2021/11/10 00:29:59;;;;;;;2.83;2.40;;;;;;;2.06;72.95;98363.06;5096438;28;20012;-66
2021/11/10 00:32:25;;;;;;;3.40;2.28;;;;;;;2.05;72.42;98358.75;5096284;28;20441;-67
2021/11/10 00:34:50;;;;;;;2.97;2.30;;;;;;;1.97;72.37;98367.19;5096074;28;20058;-67
2021/11/10 00:37:16;;;;;;;3.40;2.38;;;;;;;1.88;72.46;98366.94;5096100;28;20361;-63
2021/11/10 00:39:41;;;;;;;3.85;2.30;;;;;;;1.83;73.04;98365.94;5096144;28;20020;-63
2021/11/10 00:42:07;;;;;;;2.00;1.80;;;;;;;1.80;73.01;98371.88;5096080;28;21239;-65
2021/11/10 00:44:33;;;;;;;2.35;2.10;;;;;;;1.73;72.98;98365.72;5095907;28;20028;-66
2021/11/10 00:46:58;;;;;;;8.65;2.83;;;;;;;1.70;72.45;98363.03;5095967;28;20028;-69
2021/11/10 00:49:24;;;;;;;2.50;1.92;;;;;;;1.67;72.88;98354.34;5095785;28;20111;-65
2021/11/10 00:51:49;;;;;;;4.72;2.05;;;;;;;1.62;72.57;98352.50;5094880;28;20051;-63
2021/11/10 00:54:15;;;;;;;2.80;2.40;;;;;;;1.60;73.21;98346.44;5094708;28;20028;-66
2021/11/10 00:56:40;;;;;;;3.42;2.40;;;;;;;1.56;73.17;98360.06;5095807;28;20107;-64
2021/11/10 00:59:06;;;;;;;2.53;2.33;;;;;;;1.50;73.48;98354.75;5095535;28;20487;-68
2021/11/10 01:01:32;;;;;;;4.00;2.50;;;;;;;1.41;74.29;98363.09;5095671;28;20024;-67
2021/11/10 01:03:59;;;;;;;7.03;2.45;;;;;;;1.33;75.27;98368.06;5095635;28;20377;-64
2021/11/10 01:06:25;;;;;;;3.85;1.90;;;;;;;1.43;74.99;98374.34;5095562;28;20484;-65
2021/11/10 01:08:53;;;;;;;5.53;2.22;;;;;;;1.46;74.67;98376.13;5095448;28;20036;-66
2021/11/10 01:11:19;;;;;;;5.47;2.10;;;;;;;1.46;74.44;98370.97;5095569;28;20032;-65
2021/11/10 01:13:45;;;;;;;3.35;2.10;;;;;;;1.42;74.30;98361.41;5095354;28;20584;-63
2021/11/10 01:16:11;;;;;;;2.53;2.30;;;;;;;1.42;73.47;98374.31;5095206;28;20119;-67
2021/11/10 01:18:37;;;;;;;9.70;2.67;;;;;;;1.37;73.44;98371.59;5095196;28;20028;-65
2021/11/10 01:21:03;;;;;;;2.97;2.65;;;;;;;1.26;74.45;98377.31;5095265;28;20054;-67
2021/11/10 01:23:29;;;;;;;2.42;2.13;;;;;;;1.31;74.53;98381.75;5095220;28;20544;-64
2021/11/10 01:25:54;;;;;;;3.83;2.65;;;;;;;1.36;74.76;98381.03;5095183;28;20470;-65
2021/11/10 01:28:20;;;;;;;2.90;2.42;;;;;;;1.28;74.56;98379.94;5095215;28;20093;-64
2021/11/10 01:30:46;;;;;;;2.58;2.38;;;;;;;1.21;74.49;98378.88;5095131;28;20012;-66
2021/11/10 01:33:12;;;;;;;2.80;2.40;;;;;;;1.17;75.71;98376.22;5094930;28;20027;-66
2021/11/10 01:35:38;;;;;;;3.75;2.45;;;;;;;1.22;75.98;98382.34;5094929;28;20107;-66
2021/11/10 01:38:03;;;;;;;8.57;2.90;;;;;;;1.15;75.33;98373.59;5094846;28;20024;-65
2021/11/10 01:40:29;;;;;;;3.88;2.42;;;;;;;1.08;75.59;98380.25;5094923;28;20028;-65
2021/11/10 01:43:00;;;;;;;3.20;2.47;;;;;;;1.04;75.80;98385.25;5094938;28;20023;-67
2021/11/10 01:45:25;;;;;;;3.38;2.10;;;;;;;0.92;76.07;98394.38;5094886;28;20039;-65
2021/11/10 01:47:51;;;;;;;4.70;2.90;;;;;;;0.88;76.33;98393.41;5094782;28;20016;-66
2021/11/10 01:50:18;;;;;;;2.78;2.50;;;;;;;0.96;76.10;98390.22;5093396;28;20362;-68
2021/11/10 01:52:45;;;;;;;16.17;11.98;;;;;;;1.03;76.05;98381.81;5094638;28;20024;-66
2021/11/10 01:55:12;;;;;;;10.15;7.78;;;;;;;1.03;75.93;98384.41;5094528;28;20024;-66
2021/11/10 01:57:38;;;;;;;11.82;9.25;;;;;;;1.03;75.98;98386.97;5094438;28;20052;-68
2021/11/10 02:00:13;;;;;;;5.22;4.38;;;;;;;1.09;75.76;98394.88;5094592;28;20012;-65
2021/11/10 02:02:41;;;;;;;5.45;2.83;;;;;;;1.09;75.49;98387.13;5094542;28;20031;-63
2021/11/10 02:05:16;;;;;;;3.08;2.42;;;;;;;0.98;75.45;98381.69;5094375;28;20023;-62
2021/11/10 02:07:42;;;;;;;2.55;2.08;;;;;;;0.95;75.30;98379.00;5094432;28;20032;-66
2021/11/10 02:10:10;;;;;;;3.17;2.63;;;;;;;0.88;75.65;98385.66;5094288;28;20020;-66
2021/11/10 02:12:37;;;;;;;4.03;2.97;;;;;;;0.84;75.94;98391.56;5094355;28;20024;-66
2021/11/10 02:15:06;;;;;;;2.90;2.50;;;;;;;0.82;76.14;98385.50;5094377;28;20043;-68
2021/11/10 02:17:31;;;;;;;4.40;3.95;;;;;;;0.83;75.87;98389.81;5093914;28;20576;-64
2021/11/10 02:19:57;;;;;;;3.58;3.13;;;;;;;0.83;76.30;98383.78;5094242;28;20066;-66
2021/11/10 02:22:23;;;;;;;4.03;3.05;;;;;;;0.83;76.42;98399.25;5094106;28;20462;-69
2021/11/10 02:24:49;;;;;;;2.65;2.40;;;;;;;0.81;76.10;98400.94;5093973;28;20020;-66
2021/11/10 02:27:18;;;;;;;7.68;2.72;;;;;;;0.82;76.23;98400.09;5092738;28;20021;-67
2021/11/10 02:29:45;;;;;;;3.03;2.33;;;;;;;0.78;76.62;98395.66;5093908;28;20070;-67
2021/11/10 02:32:13;;;;;;;4.18;3.65;;;;;;;0.74;76.46;98394.69;5094272;28;20374;-66
2021/11/10 02:34:41;;;;;;;4.45;2.90;;;;;;;0.75;76.45;98391.28;5093898;28;20032;-65
2021/11/10 02:37:07;;;;;;;3.22;2.65;;;;;;;0.74;76.58;98402.41;5093696;28;20032;-66
2021/11/10 02:39:33;;;;;;;2.80;2.47;;;;;;;0.76;76.57;98400.78;5093743;28;20054;-67
2021/11/10 02:41:59;;;;;;;3.22;2.25;;;;;;;0.71;76.26;98390.31;5093810;28;20024;-63
2021/11/10 02:44:25;;;;;;;3.83;2.50;;;;;;;0.65;76.82;98389.25;5093722;28;20369;-67
2021/11/10 02:46:52;;;;;;;2.75;2.45;;;;;;;0.64;76.82;98401.28;5093638;28;20020;-67
2021/11/10 02:49:20;;;;;;;2.97;2.40;;;;;;;0.64;77.16;98401.28;5093621;28;20031;-65
2021/11/10 02:52:13;;;;;;;4.50;2.40;;;;;;;0.71;77.00;98408.38;5093615;28;20024;-65
2021/11/10 02:54:53;;;;;;;5.63;2.50;;;;;;;0.67;76.86;98405.63;5091873;28;20111;-68
2021/11/10 02:57:19;;;;;;;2.70;1.75;;;;;;;0.71;76.89;98405.78;5093435;28;20028;-66
2021/11/10 02:59:45;;;;;;;2.97;2.50;;;;;;;0.71;76.54;98412.63;5093406;28;20029;-64
2021/11/10 03:02:11;;;;;;;3.35;2.85;;;;;;;0.74;76.47;98417.88;5093417;28;20162;-67
2021/11/10 03:04:46;;;;;;;2.88;2.38;;;;;;;0.75;76.42;98422.19;5093361;28;20106;-64
2021/11/10 03:07:13;;;;;;;4.55;2.70;;;;;;;0.75;76.26;98414.47;5093415;28;20021;-66
2021/11/10 03:09:40;;;;;;;2.88;2.45;;;;;;;0.71;76.02;98415.22;5093345;28;20371;-65
2021/11/10 03:12:07;;;;;;;4.57;2.47;;;;;;;0.75;76.35;98414.47;5093275;28;20103;-67
2021/11/10 03:14:37;;;;;;;3.50;2.60;;;;;;;0.75;76.26;98414.47;5092811;28;20028;-67
2021/11/10 03:17:05;;;;;;;4.20;2.40;;;;;;;0.75;75.87;98407.63;5092987;28;20393;-65
2021/11/10 03:19:32;;;;;;;3.33;2.83;;;;;;;0.73;75.57;98414.41;5093163;28;20044;-64
2021/11/10 03:21:58;;;;;;;2.90;2.45;;;;;;;0.64;76.12;98403.84;5093251;28;20418;-66
2021/11/10 03:24:23;;;;;;;8.55;2.22;;;;;;;0.56;76.46;98418.16;5093284;28;20028;-70
2021/11/10 03:26:49;;;;;;;3.08;2.22;;;;;;;0.54;76.53;98420.69;5093227;28;20432;-65
2021/11/10 03:29:14;;;;;;;2.60;2.40;;;;;;;0.51;77.09;98412.88;5093279;28;20074;-65
2021/11/10 03:31:41;;;;;;;3.00;2.70;;;;;;;0.52;77.13;98413.75;5093178;28;20037;-64
2021/11/10 03:34:09;;;;;;;4.15;2.75;;;;;;;0.45;77.61;98408.41;5093011;28;20482;-64
2021/11/10 03:36:35;;;;;;;2.72;2.42;;;;;;;0.40;77.52;98419.38;5093142;28;20066;-67
2021/11/10 03:39:03;;;;;;;4.07;2.83;;;;;;;0.33;78.60;98423.47;5093030;28;20444;-67
2021/11/10 03:41:29;;;;;;;3.97;2.70;;;;;;;0.35;78.38;98421.78;5093015;28;20081;-67
2021/11/10 03:43:55;;;;;;;4.95;2.30;;;;;;;0.29;78.20;98419.00;5092987;28;20032;-64
2021/11/10 03:46:23;;;;;;;4.53;3.28;;;;;;;0.21;78.73;98417.06;5093028;28;20409;-66
2021/11/10 03:48:49;;;;;;;3.47;2.40;;;;;;;0.24;78.84;98422.31;5093006;28;20062;-64
2021/11/10 03:51:16;;;;;;;3.67;2.45;;;;;;;0.28;78.00;98414.69;5092869;28;20055;-67
2021/11/10 03:53:41;;;;;;;2.90;2.60;;;;;;;0.16;78.42;98413.47;5091682;28;20123;-68
2021/11/10 03:56:07;;;;;;;6.45;2.80;;;;;;;0.14;78.70;98411.66;5092818;28;20124;-63
2021/11/10 03:58:34;;;;;;;2.67;2.47;;;;;;;0.16;78.49;98415.16;5092814;28;20041;-65
2021/11/10 04:01:00;;;;;;;3.70;3.15;;;;;;;0.14;78.56;98411.66;5092747;28;20399;-66
2021/11/10 04:03:26;;;;;;;2.50;2.30;;;;;;;0.14;78.69;98414.22;5092779;28;20404;-66
2021/11/10 04:05:55;;;;;;;2.92;2.60;;;;;;;0.10;78.41;98408.13;5092767;28;20103;-65
2021/11/10 04:08:21;;;;;;;5.75;2.80;;;;;;;0.02;78.59;98402.69;5092809;28;20020;-66
2021/11/10 04:10:47;;;;;;;3.10;2.50;;;;;;;-0.04;79.25;98393.09;5092782;28;20028;-65
2021/11/10 04:13:13;;;;;;;4.88;2.70;;;;;;;-0.07;79.43;98400.69;5092695;28;20028;-68
2021/11/10 04:15:39;;;;;;;2.72;2.50;;;;;;;-0.10;79.45;98394.56;5092746;28;20111;-67
2021/11/10 04:18:04;;;;;;;3.97;2.30;;;;;;;-0.07;79.28;98390.41;5094346;28;20401;-67
2021/11/10 04:20:30;;;;;;;3.67;3.00;;;;;;;-0.11;80.76;98395.38;5092770;28;20032;-67
2021/11/10 04:22:56;;;;;;;6.82;2.70;;;;;;;-0.04;80.43;98405.06;5092548;28;20483;-68
2021/11/10 04:25:22;;;;;;;3.63;2.75;;;;;;;0.02;80.12;98401.81;5092584;28;20024;-67
2021/11/10 04:27:48;;;;;;;3.67;3.00;;;;;;;-0.03;79.80;98396.53;5094841;28;20021;-65
2021/11/10 04:30:14;;;;;;;4.45;3.30;;;;;;;-0.07;80.72;98392.97;5096141;28;20027;-63
2021/11/10 04:32:40;;;;;;;6.65;3.83;;;;;;;-0.04;81.63;98393.09;5096066;28;20024;-65
2021/11/10 04:35:08;;;;;;;3.90;3.17;;;;;;;0.07;81.03;98395.13;5096209;28;20024;-66
2021/11/10 04:37:34;;;;;;;3.55;2.78;;;;;;;0.07;80.38;98402.88;5094883;28;20414;-66
2021/11/10 04:40:00;;;;;;;5.22;2.58;;;;;;;0.03;80.09;98389.00;5096141;28;20074;-66
2021/11/10 04:42:27;;;;;;;3.72;2.80;;;;;;;-0.05;80.15;98398.16;5095953;28;20110;-63
2021/11/10 04:45:02;;;;;;;3.22;2.85;;;;;;;-0.10;80.60;98390.28;5095906;28;20028;-65
2021/11/10 04:47:28;;;;;;;7.50;6.78;;;;;;;-0.08;81.29;98398.94;5096158;28;20031;-66
2021/11/10 04:49:53;;;;;;;5.85;5.25;;;;;;;0.04;81.57;98389.88;5095919;28;20028;-65
2021/11/10 04:52:19;;;;;;;4.85;4.45;;;;;;;-0.01;81.02;98384.56;5095810;28;20031;-67
2021/11/10 04:54:45;;;;;;;8.73;5.35;;;;;;;-0.05;81.06;98375.00;5094490;28;20051;-65
2021/11/10 04:57:10;;;;;;;6.43;4.00;;;;;;;-0.04;81.32;98369.91;5095797;28;20024;-66
2021/11/10 04:59:36;;;;;;;5.72;3.13;;;;;;;0.03;81.29;98381.28;5095670;28;20032;-64
2021/11/10 05:04:29;;;;;;;5.30;3.63;;;;;;;0.17;82.03;98384.31;5095668;28;20024;-63
2021/11/10 05:06:55;;;;;;;4.55;3.97;;;;;;;0.31;82.81;98371.03;5095509;28;20050;-65
2021/11/10 05:09:20;;;;;;;4.90;3.95;;;;;;;0.49;82.83;98371.59;5095464;28;20024;-66
2021/11/10 05:11:46;;;;;;;5.20;3.92;;;;;;;0.68;82.49;98377.34;5095436;28;20029;-67
2021/11/10 05:14:12;;;;;;;4.88;4.03;;;;;;;0.86;81.60;98386.47;5095495;28;20066;-65
2021/11/10 05:16:37;;;;;;;4.65;3.50;;;;;;;1.00;80.52;98389.47;5093857;28;20028;-67
2021/11/10 05:19:03;;;;;;;6.28;3.25;;;;;;;1.09;80.63;98396.59;5095339;28;20028;-65
2021/11/10 05:21:29;;;;;;;4.40;3.47;;;;;;;1.17;80.17;98399.41;5095351;28;20028;-66
2021/11/10 05:23:54;;;;;;;4.13;2.58;;;;;;;1.23;78.84;98405.59;5095280;28;20053;-66
2021/11/10 05:26:20;;;;;;;3.03;2.72;;;;;;;1.28;78.09;98410.91;5095263;28;20016;-67
2021/11/10 05:28:46;;;;;;;3.10;2.80;;;;;;;1.28;77.94;98412.59;5095069;28;20031;-65
2021/11/10 05:31:11;;;;;;;5.45;2.90;;;;;;;1.26;77.70;98413.44;5095079;28;20024;-63
2021/11/10 05:33:37;;;;;;;7.07;4.50;;;;;;;1.25;77.73;98429.75;5095030;28;20031;-67
2021/11/10 05:36:03;;;;;;;5.63;4.72;;;;;;;1.33;77.70;98440.28;5094961;28;20435;-66
2021/11/10 05:38:29;;;;;;;5.45;4.07;;;;;;;1.30;78.01;98436.75;5094558;28;20496;-64
2021/11/10 05:40:54;;;;;;;5.35;4.07;;;;;;;1.28;78.24;98440.97;5094807;28;20028;-67
2021/11/10 05:43:20;;;;;;;5.03;3.70;;;;;;;1.34;78.40;98452.34;5094835;28;20054;-67
2021/11/10 05:45:46;;;;;;;3.88;3.00;;;;;;;1.84;77.84;98456.31;5094907;28;20091;-67
2021/11/10 05:48:12;;;;;;;2.47;2.22;;;;;;;3.52;73.43;98440.47;5094764;28;20090;-63
2021/11/10 05:50:37;;;;;;;2.85;1.80;;;;;;;5.34;66.48;98441.81;5094749;28;20105;-61
2021/11/10 05:53:03;;;;;;;3.55;2.20;;;;;;;7.08;60.49;98445.31;5094648;28;20024;-67
2021/11/10 05:55:29;;;;;;;1.90;1.80;;;;;;;8.83;55.12;98449.34;5094716;28;20082;-62
2021/11/10 05:57:56;;;;;;;2.10;1.67;;;;;;;10.39;50.67;98455.75;5094457;28;20070;-65
2021/11/10 06:00:22;;;;;;;2.35;2.13;;;;;;;11.88;47.34;98455.22;5094576;28;20490;-63
2021/11/10 06:02:49;;;;;;;1.65;1.55;;;;;;;13.35;44.38;98456.50;5094423;28;20027;-64
2021/11/10 06:05:20;;;;;;;3.63;1.92;;;;;;;14.59;41.52;98454.81;5094488;28;20103;-66
2021/11/10 06:07:46;;;;;;;2.08;1.73;;;;;;;15.84;38.65;98446.31;5094416;28;20031;-67
2021/11/10 06:10:14;;;;;;;2.63;1.75;;;;;;;16.80;35.80;98452.22;5094204;28;20028;-64
2021/11/10 06:12:40;;;;;;;1.75;1.20;;;;;;;17.37;34.83;98473.22;5094296;28;20059;-67
2021/11/10 06:15:06;;;;;;;1.63;1.52;;;;;;;17.67;33.67;98478.34;5094323;28;20060;-68
2021/11/10 06:17:32;;;;;;;8.63;5.38;;;;;;;18.44;32.95;98475.53;5092614;28;20166;-62
2021/11/10 06:20:01;;;;;;;13.63;8.25;;;;;;;18.90;31.72;98474.63;5094098;28;20465;-69
2021/11/10 06:22:27;;;;;;;9.70;6.55;;;;;;;19.13;31.31;98483.41;5094023;28;20020;-63
2021/11/10 06:24:53;;;;;;;2.75;1.90;;;;;;;19.30;30.96;98482.72;5092819;28;20116;-64
2021/11/10 06:27:20;;;;;;;2.78;1.80;;;;;;;19.54;30.30;98472.78;5094170;28;20020;-66
2021/11/10 06:29:45;;;;;;;4.03;2.80;;;;;;;19.98;29.71;98478.84;5093996;28;20051;-63
2021/11/10 06:32:11;;;;;;;2.95;2.05;;;;;;;20.06;29.31;98484.72;5093921;28;20098;-65
2021/11/10 06:34:37;;;;;;;3.53;1.50;;;;;;;19.65;29.55;98480.28;5093893;28;20558;-66
2021/11/10 06:37:04;;;;;;;1.70;1.60;;;;;;;20.15;29.14;98486.06;5093862;28;20107;-63
2021/11/10 06:39:30;;;;;;;3.35;2.42;;;;;;;20.76;28.50;98474.34;5092372;28;20034;-63
2021/11/10 06:41:56;;;;;;;4.55;2.65;;;;;;;21.30;28.90;98484.13;5094108;28;20135;-64
2021/11/10 06:44:22;;;;;;;2.33;1.58;;;;;;;20.76;29.01;98490.31;5093813;28;20517;-63
2021/11/10 06:46:47;;;;;;;1.52;1.38;;;;;;;21.40;29.03;98489.84;5093797;28;20078;-64
2021/11/10 06:49:13;;;;;;;1.70;1.60;;;;;;;21.97;27.80;98486.00;5093098;28;20034;-62
2021/11/10 06:51:39;;;;;;;1.83;1.30;;;;;;;22.55;27.70;98493.53;5093595;28;20033;-64
2021/11/10 06:54:06;;;;;;;3.75;1.95;;;;;;;23.13;26.37;98485.81;5093625;28;20035;-65
2021/11/10 06:56:31;;;;;;;2.97;1.90;;;;;;;23.49;25.80;98478.41;5093406;28;20046;-66
2021/11/10 06:58:58;;;;;;;1.75;1.40;;;;;;;24.14;24.83;98478.91;5093399;28;20032;-64
2021/11/10 07:01:23;;;;;;;6.03;1.75;;;;;;;24.19;24.90;98486.63;5093448;28;20485;-64
2021/11/10 07:03:49;;;;;;;3.35;1.70;;;;;;;24.82;24.48;98486.19;5093597;28;20099;-64
2021/11/10 07:06:15;;;;;;;1.88;1.70;;;;;;;25.14;23.38;98483.22;5093417;28;20378;-62
2021/11/10 07:08:41;;;;;;;1.92;1.77;;;;;;;25.31;22.30;98471.34;5093295;28;20027;-66
2021/11/10 07:11:06;;;;;;;1.88;1.70;;;;;;;25.48;22.56;98480.91;5093344;28;20020;-65
2021/11/10 07:13:32;;;;;;;1.75;1.38;;;;;;;24.94;21.99;98473.84;5093271;28;20408;-68
2021/11/10 07:15:57;;;;;;;1.85;1.75;;;;;;;24.86;22.36;98477.84;5093179;28;20024;-66
2021/11/10 07:18:23;;;;;;;1.90;1.70;;;;;;;24.68;22.40;98479.94;5093029;28;20051;-65
2021/11/10 07:20:50;;;;;;;3.35;1.80;;;;;;;24.33;22.60;98486.63;5093230;28;20044;-66
2021/11/10 07:23:16;;;;;;;1.77;1.67;;;;;;;24.09;23.84;98486.34;5093161;28;20387;-64
2021/11/10 07:25:42;;;;;;;2.00;1.60;;;;;;;24.35;23.44;98495.41;5093149;28;20085;-64
2021/11/10 07:28:07;;;;;;;5.47;2.35;;;;;;;22.79;25.54;98487.78;5093103;28;20066;-66
2021/11/10 07:30:33;;;;;;;4.75;2.50;;;;;;;23.09;25.43;98478.94;5093170;28;20417;-66
2021/11/10 07:32:59;;;;;;;3.78;2.30;;;;;;;23.17;26.09;98486.47;5093204;28;20032;-64
2021/11/10 07:35:25;;;;;;;3.03;2.63;;;;;;;23.48;25.82;98482.88;5093205;28;20096;-66
2021/11/10 07:37:51;;;;;;;2.78;2.58;;;;;;;23.30;25.62;98490.13;5092935;28;20036;-63
2021/11/10 07:40:17;;;;;;;3.25;2.67;;;;;;;23.09;25.50;98493.13;5091753;28;20028;-65
2021/11/10 07:42:44;;;;;;;3.53;3.10;;;;;;;22.88;25.32;98478.38;5092982;28;20032;-65
2021/11/10 07:45:15;;;;;;;5.65;3.53;;;;;;;23.64;24.87;98478.41;5093022;28;20034;-65
2021/11/10 07:47:42;;;;;;;3.67;3.20;;;;;;;23.72;25.03;98476.97;5093079;28;20081;-64
2021/11/10 07:50:13;;;;;;;5.95;3.20;;;;;;;23.43;25.74;98478.75;5092875;28;20533;-66
2021/11/10 07:52:39;;;;;;;28.98;18.40;;;;;;;23.66;24.43;98477.34;5092975;28;20036;-66
2021/11/10 07:55:06;;;;;;;3.53;3.03;;;;;;;23.19;24.88;98479.25;5092920;28;20056;-68
2021/11/10 07:57:33;;;;;;;3.35;2.90;;;;;;;22.24;26.40;98485.44;5092713;28;20020;-64
2021/11/10 08:00:00;;;;;;;2.95;2.65;;;;;;;21.27;26.80;98476.31;5092877;28;20090;-66
2021/11/10 08:02:25;;;;;;;4.30;3.63;;;;;;;20.27;28.72;98478.44;5096480;28;20028;-66
2021/11/10 08:04:51;;;;;;;7.78;3.28;;;;;;;19.25;31.02;98490.00;5095573;28;20222;-62
2021/11/10 08:07:17;;;;;;;4.40;3.42;;;;;;;18.50;30.90;98482.38;5096823;28;20445;-64
2021/11/10 08:09:42;;;;;;;4.30;3.15;;;;;;;17.68;32.63;98473.94;5096708;28;20541;-66
2021/11/10 08:12:08;;;;;;;4.20;3.35;;;;;;;16.74;33.55;98479.69;5096609;28;20029;-63
2021/11/10 08:14:34;;;;;;;4.40;3.40;;;;;;;15.74;36.78;98485.28;5096599;28;20025;-66
2021/11/10 08:16:59;;;;;;;3.80;3.25;;;;;;;15.39;37.77;98476.56;5096443;28;20101;-63
2021/11/10 08:19:25;;;;;;;4.20;3.80;;;;;;;15.02;38.52;98476.63;5096463;28;20032;-67
2021/11/10 08:21:51;;;;;;;4.15;3.58;;;;;;;14.13;41.05;98483.03;5096470;28;20020;-66
2021/11/10 08:24:17;;;;;;;6.07;3.67;;;;;;;13.79;41.91;98487.25;5096361;28;20031;-66
2021/11/10 08:26:42;;;;;;;6.00;4.32;;;;;;;13.33;42.40;98484.56;5096424;28;20385;-63
2021/11/10 08:29:08;;;;;;;6.05;3.72;;;;;;;13.29;43.38;98482.00;5096346;28;20055;-65
2021/11/10 08:31:34;;;;;;;4.97;3.22;;;;;;;13.42;42.78;98488.78;5096296;28;20016;-64
2021/11/10 08:34:00;;;;;;;5.72;3.65;;;;;;;12.91;43.85;98490.53;5096284;28;20430;-64
2021/11/10 08:36:26;;;;;;;4.65;3.55;;;;;;;12.74;46.97;98488.19;5096168;28;20027;-64
2021/11/10 08:38:53;;;;;;;5.88;3.53;;;;;;;12.45;46.29;98490.38;5096048;28;20038;-63
2021/11/10 08:41:20;;;;;;;4.85;3.85;;;;;;;12.48;46.68;98494.69;5096094;28;20023;-63
2021/11/10 08:43:47;;;;;;;6.20;3.70;;;;;;;12.17;47.08;98501.25;5096089;28;20478;-62
2021/11/10 08:46:13;;;;;;;3.88;3.33;;;;;;;12.06;47.33;98487.34;5095994;28;20447;-66
2021/11/10 08:48:39;;;;;;;6.90;3.60;;;;;;;12.04;47.07;98489.16;5095914;28;20107;-63
2021/11/10 08:51:04;;;;;;;6.18;3.30;;;;;;;12.07;47.71;98489.16;5095994;28;20028;-63
2021/11/10 08:53:32;;;;;;;4.32;3.58;;;;;;;12.19;46.42;98488.97;5095805;28;20020;-64
2021/11/10 08:55:58;;;;;;;4.18;3.40;;;;;;;12.18;47.34;98488.97;5095798;28;20381;-64
2021/11/10 08:58:25;;;;;;;6.55;3.80;;;;;;;12.30;48.47;98487.94;5095616;28;20111;-65
2021/11/10 09:00:52;;;;;;;4.20;3.63;;;;;;;12.31;47.95;98482.66;5095648;28;20032;-63
2021/11/10 09:03:21;;;;;;;5.45;4.32;;;;;;;12.29;48.00;98484.47;5095601;28;20020;-64
2021/11/10 09:05:51;;;;;;;4.50;3.80;;;;;;;12.15;48.57;98476.78;5095574;28;20053;-66
2021/11/10 09:08:19;;;;;;;4.15;3.75;;;;;;;12.29;46.97;98471.34;5094494;28;20036;-66
2021/11/10 09:10:45;;;;;;;5.55;3.67;;;;;;;12.41;46.98;98465.06;5095512;28;20074;-65
2021/11/10 09:13:11;;;;;;;3.55;3.22;;;;;;;12.53;45.82;98463.13;5094824;28;20031;-64
2021/11/10 09:15:37;;;;;;;31.58;18.55;;;;;;;12.33;46.74;98461.66;5095465;28;20035;-63
2021/11/10 09:18:06;;;;;;;4.72;3.85;;;;;;;12.28;45.13;98453.84;5095169;28;20048;-64
2021/11/10 09:20:34;;;;;;;3.35;3.05;;;;;;;12.45;44.97;98460.59;5095381;28;20108;-64
2021/11/10 09:23:02;;;;;;;4.55;3.50;;;;;;;12.46;45.12;98455.34;5095294;28;20039;-63
2021/11/10 09:25:29;;;;;;;5.00;3.15;;;;;;;12.30;45.12;98452.09;5095213;28;20055;-66
2021/11/10 09:27:58;;;;;;;3.63;3.03;;;;;;;12.39;43.81;98453.69;5095240;28;20028;-61
2021/11/10 09:30:27;;;;;;;3.38;2.90;;;;;;;12.24;43.69;98444.28;5095158;28;20035;-66
2021/11/10 09:32:54;;;;;;;4.22;3.00;;;;;;;12.26;45.81;98442.53;5095195;28;20028;-67
2021/11/10 09:35:22;;;;;;;2.83;2.50;;;;;;;12.31;44.82;98438.06;5094964;28;20057;-61
2021/11/10 09:37:49;;;;;;;3.13;2.83;;;;;;;12.17;43.42;98450.53;5093650;28;20107;-63
2021/11/10 09:40:16;;;;;;;3.42;2.88;;;;;;;12.06;43.86;98440.13;5094901;28;20078;-65
2021/11/10 09:42:43;;;;;;;3.28;2.85;;;;;;;11.97;45.67;98444.63;5094995;28;20080;-62
2021/11/10 09:45:15;;;;;;;3.55;2.83;;;;;;;11.87;44.35;98435.16;5094948;28;20024;-64
2021/11/10 09:47:42;;;;;;;7.10;4.88;;;;;;;11.88;46.31;98432.50;5094751;28;20036;-61
2021/11/10 09:50:12;;;;;;;3.75;3.10;;;;;;;11.88;45.89;98429.00;5094862;28;20020;-65
2021/11/10 09:52:38;;;;;;;3.45;3.15;;;;;;;11.85;46.35;98424.69;5094836;28;20024;-66
2021/11/10 09:55:06;;;;;;;3.33;3.03;;;;;;;11.70;46.76;98427.47;5094704;28;20377;-62
2021/11/10 09:57:32;;;;;;;5.00;3.40;;;;;;;11.95;46.96;98419.31;5094515;28;20063;-63
2021/11/10 09:59:57;;;;;;;4.68;3.55;;;;;;;12.03;48.17;98420.06;5094539;28;20386;-64
2021/11/10 10:02:23;;;;;;;4.00;3.22;;;;;;;11.93;48.42;98414.09;5094413;28;20023;-63
2021/11/10 10:04:49;;;;;;;3.33;3.03;;;;;;;11.73;46.29;98409.09;5094408;28;20027;-64
2021/11/10 10:07:16;;;;;;;4.97;3.45;;;;;;;11.87;45.89;98406.31;5094486;28;20024;-66
2021/11/10 10:09:43;;;;;;;3.58;2.92;;;;;;;11.82;44.53;98408.09;5094533;28;20115;-65
2021/11/10 10:12:09;;;;;;;3.78;3.47;;;;;;;11.88;44.47;98400.16;5094507;28;20026;-64
2021/11/10 10:14:36;;;;;;;3.47;2.78;;;;;;;11.93;45.32;98398.34;5094277;28;20054;-63
2021/11/10 10:17:08;;;;;;;5.55;3.45;;;;;;;11.82;45.12;98392.38;5094154;28;20459;-65
2021/11/10 10:19:39;;;;;;;3.33;3.03;;;;;;;11.81;45.37;98377.53;5094171;28;20028;-63
2021/11/10 10:22:05;;;;;;;6.30;3.60;;;;;;;11.78;47.19;98378.44;5094240;28;20024;-63
2021/11/10 10:24:45;;;;;;;3.75;3.35;;;;;;;11.66;48.05;98375.97;5093141;28;20028;-63
2021/11/10 10:27:29;;;;;;;4.65;3.53;;;;;;;11.77;46.14;98376.69;5094222;28;20367;-65
2021/11/10 10:30:31;;;;;;;3.80;3.38;;;;;;;11.94;46.71;98367.72;5093990;28;20039;-63
2021/11/10 10:33:22;;;;;;;3.80;3.38;;;;;;;11.73;46.26;98361.91;5094053;28;20028;-64
2021/11/10 10:36:09;;;;;;;3.63;3.28;;;;;;;11.73;46.08;98359.28;5093542;28;20047;-65
2021/11/10 10:38:47;;;;;;;4.38;3.53;;;;;;;11.69;46.01;98354.97;5093766;28;20374;-62
2021/11/10 10:41:15;;;;;;;4.55;3.53;;;;;;;11.56;45.53;98359.53;5093885;28;20024;-67
2021/11/10 10:43:49;;;;;;;3.45;3.13;;;;;;;11.45;45.92;98350.03;5093899;28;20048;-67
2021/11/10 10:46:16;;;;;;;6.07;3.95;;;;;;;11.48;48.36;98344.75;5093840;28;20024;-66
2021/11/10 10:48:42;;;;;;;4.10;3.70;;;;;;;11.57;46.80;98338.53;5093759;28;20020;-68
2021/11/10 10:51:15;;;;;;;4.47;3.22;;;;;;;11.55;45.22;98334.19;5093650;28;20024;-65
2021/11/10 10:53:43;;;;;;;3.63;3.05;;;;;;;11.63;46.50;98332.34;5093602;28;20165;-65
2021/11/10 10:56:27;;;;;;;3.38;3.08;;;;;;;11.84;46.11;98325.94;5093590;28;20017;-68
2021/11/10 10:59:13;;;;;;;3.90;3.30;;;;;;;11.88;46.85;98327.63;5093583;28;20034;-63
2021/11/10 11:01:42;;;;;;;4.95;3.33;;;;;;;12.01;45.48;98316.91;5093550;28;20067;-64
2021/11/10 11:04:17;;;;;;;4.45;3.55;;;;;;;11.86;46.70;98321.50;5093374;28;20027;-62
2021/11/10 11:06:42;;;;;;;3.35;3.05;;;;;;;11.87;46.01;98317.16;5093500;28;20047;-64
2021/11/10 11:09:19;;;;;;;5.47;4.07;;;;;;;11.77;46.83;98316.41;5093443;28;20024;-67
2021/11/10 11:12:14;;;;;;;5.63;3.67;;;;;;;11.71;46.45;98311.25;5093401;28;20038;-67
2021/11/10 11:15:06;;;;;;;3.80;3.20;;;;;;;11.50;47.62;98308.91;5093313;28;20043;-65
2021/11/10 11:17:41;;;;;;;5.78;3.75;;;;;;;11.62;48.44;98302.63;5093039;28;20048;-66
2021/11/10 11:20:23;;;;;;;4.05;3.42;;;;;;;11.56;47.86;98307.09;5093328;28;20032;-62
2021/11/10 11:26:30;;;;;;;5.88;4.47;;;;;;;11.82;47.14;98296.22;5093185;28;20051;-67
2021/11/10 11:28:58;;;;;;;4.60;4.03;;;;;;;11.73;47.46;98292.00;5093098;28;20035;-66
2021/11/10 11:31:35;;;;;;;4.85;4.28;;;;;;;11.65;47.68;98285.13;5093114;28;20102;-66
2021/11/10 11:34:01;;;;;;;4.43;3.90;;;;;;;11.60;48.65;98288.69;5093256;28;20052;-63
2021/11/10 11:36:51;;;;;;;6.03;4.22;;;;;;;11.57;48.52;98283.50;5094971;28;20141;-65
2021/11/10 11:39:18;;;;;;;8.82;4.53;;;;;;;11.36;47.85;98290.75;5097327;28;20035;-65
2021/11/10 11:41:43;;;;;;;4.63;3.95;;;;;;;11.32;48.61;98289.03;5097268;28;20473;-66
2021/11/10 11:44:09;;;;;;;5.72;3.80;;;;;;;11.32;46.98;98281.19;5097212;28;20070;-62